Terminal Aerodrome Forecast
Issued by NWS

Home | Current Version | Previous Version | Text Only | Print | Product List | Glossary Off
Versions: 1 2 3 4 5 6 7 8 9 10 11 12 13 14 15 16 17

000
FTUS43 KGRB 281731
TAFRHI
TAF
KRHI 281731Z 2818/2918 06007KT P6SM SCT035 BKN110
     FM290200 VRB03KT P6SM SCT100
     FM290700 00000KT 4SM BR SCT100
     FM291300 06005KT P6SM SCT045=

USA.gov is the U.S. government's official web portal to all federal, state and local government web resources and services.